Time;durP1;ratioP1;P1;durP2;ratioP2;P2;SDS_P1;SDS_P2;PMS_P1;PMS_P2;Temp;Humidity;BMP_temperature;BMP_pressure;BME280_temperature;BME280_humidity;BME280_pressure;Samples;Min_cycle;Max_cycle;Signal;HPM_P1;HPM_P2
2023/03/01 00:00:50;;;;;;;7.57;5.03;;;-3.60;99.90;;;;;;7379515;19;20441;-79
2023/03/01 00:03:15;;;;;;;7.38;4.75;;;-3.60;99.90;;;;;;7379838;19;20824;-79
2023/03/01 00:05:45;;;;;;;8.83;5.03;;;-3.60;99.90;;;;;;7380561;19;20355;-80
2023/03/01 00:08:11;;;;;;;6.47;4.80;;;-3.70;99.90;;;;;;7381449;19;20317;-78
2023/03/01 00:10:36;;;;;;;7.43;5.00;;;-3.80;99.90;;;;;;7382655;19;20883;-80
2023/03/01 00:13:02;;;;;;;6.33;4.83;;;-3.80;99.90;;;;;;7381116;19;21328;-75
2023/03/01 00:15:27;;;;;;;6.95;4.93;;;-3.80;99.90;;;;;;7380066;19;20338;-78
2023/03/01 00:17:53;;;;;;;7.32;5.65;;;-3.80;99.90;;;;;;7377345;19;20361;-79
2023/03/01 00:20:19;;;;;;;8.00;5.40;;;-3.80;99.90;;;;;;7380153;19;20324;-83
2023/03/01 00:22:44;;;;;;;8.77;6.10;;;-3.80;99.90;;;;;;7375115;19;20356;-81
2023/03/01 00:25:10;;;;;;;8.10;5.40;;;-3.90;99.90;;;;;;7379088;19;20852;-79
2023/03/01 00:27:35;;;;;;;7.13;5.18;;;-4.00;99.90;;;;;;7380078;19;20505;-79
2023/03/01 00:30:01;;;;;;;8.07;5.43;;;-4.00;99.90;;;;;;7377940;19;20317;-80
2023/03/01 00:32:27;;;;;;;6.80;4.90;;;-3.90;99.90;;;;;;7375301;19;20329;-82
2023/03/01 00:34:56;;;;;;;8.07;5.35;;;-4.00;99.90;;;;;;7378544;19;20736;-79
2023/03/01 00:37:22;;;;;;;7.40;5.20;;;-4.00;99.90;;;;;;7377641;19;20950;-81
2023/03/01 00:39:49;;;;;;;5.93;4.90;;;-4.10;99.90;;;;;;7377933;19;20349;-80
2023/03/01 00:42:15;;;;;;;6.40;5.10;;;-4.10;99.90;;;;;;7378267;19;20324;-78
2023/03/01 00:44:40;;;;;;;7.53;5.43;;;-4.10;99.90;;;;;;7377649;19;20867;-79
2023/03/01 00:47:06;;;;;;;7.63;5.55;;;-4.10;99.90;;;;;;7378913;19;20328;-78
2023/03/01 00:49:31;;;;;;;6.25;4.70;;;-4.00;99.90;;;;;;7379827;19;20334;-80
2023/03/01 00:51:57;;;;;;;7.10;4.60;;;-4.00;99.90;;;;;;7376777;19;20931;-78
2023/03/01 00:54:23;;;;;;;5.50;4.80;;;-4.00;99.90;;;;;;7377095;19;20439;-78
2023/03/01 00:56:48;;;;;;;7.37;4.73;;;-4.00;99.90;;;;;;7376975;19;20341;-78
2023/03/01 00:59:14;;;;;;;6.10;4.50;;;-4.10;99.90;;;;;;7378067;19;20501;-79
2023/03/01 01:01:39;;;;;;;8.77;4.93;;;-4.10;99.90;;;;;;7377071;19;20666;-79
2023/03/01 01:04:07;;;;;;;5.20;4.63;;;-4.10;99.90;;;;;;7378482;19;20345;-82
2023/03/01 01:06:35;;;;;;;6.10;4.95;;;-4.10;99.90;;;;;;7376576;19;20317;-78
2023/03/01 01:09:01;;;;;;;6.63;4.72;;;-4.10;99.90;;;;;;7378552;19;20313;-80
2023/03/01 01:11:27;;;;;;;6.40;5.18;;;-4.10;99.90;;;;;;7375678;19;20390;-80
2023/03/01 01:13:53;;;;;;;7.05;5.07;;;-4.10;99.90;;;;;;7376495;19;20941;-80
2023/03/01 01:16:21;;;;;;;6.57;4.55;;;-4.10;99.90;;;;;;7376570;19;20332;-81
2023/03/01 01:18:46;;;;;;;6.78;5.03;;;-4.10;99.90;;;;;;7377877;19;20844;-79
2023/03/01 01:21:14;;;;;;;6.63;4.95;;;-4.10;99.90;;;;;;7377721;19;20347;-79
2023/03/01 01:23:39;;;;;;;6.53;4.57;;;-4.20;99.90;;;;;;7378685;19;20348;-78
2023/03/01 01:26:10;;;;;;;5.70;4.35;;;-4.20;99.90;;;;;;7377637;19;20328;-81
2023/03/01 01:28:36;;;;;;;5.07;4.25;;;-4.20;99.90;;;;;;7377060;19;20425;-78
2023/03/01 01:31:02;;;;;;;6.90;4.73;;;-4.20;99.90;;;;;;7377378;19;20372;-81
2023/03/01 01:33:27;;;;;;;6.55;4.63;;;-4.20;99.90;;;;;;7367060;19;21232;-77
2023/03/01 01:35:53;;;;;;;6.30;4.82;;;-4.20;99.90;;;;;;7377321;19;20370;-78
2023/03/01 01:38:19;;;;;;;4.97;4.40;;;-4.30;99.90;;;;;;7378863;19;20827;-80
2023/03/01 01:40:45;;;;;;;5.10;4.60;;;-4.30;99.90;;;;;;7376813;19;20354;-78
2023/03/01 01:43:23;;;;;;;5.82;4.80;;;-4.30;99.90;;;;;;7376888;19;20319;-81
2023/03/01 01:45:49;;;;;;;7.32;5.63;;;-4.40;99.90;;;;;;7377932;19;20441;-79
2023/03/01 01:48:18;;;;;;;7.10;4.60;;;-4.50;99.90;;;;;;7378110;19;20300;-78
2023/03/01 01:50:44;;;;;;;5.63;4.03;;;-4.60;99.90;;;;;;7379727;19;20340;-78
2023/03/01 01:53:16;;;;;;;5.03;4.20;;;-4.50;99.90;;;;;;7378041;19;20869;-77
2023/03/01 01:55:47;;;;;;;6.07;4.13;;;-4.50;99.90;;;;;;7378054;19;20341;-81
2023/03/01 01:58:15;;;;;;;6.45;4.80;;;-4.50;99.90;;;;;;7378453;19;20657;-83
2023/03/01 02:00:40;;;;;;;5.47;4.00;;;-4.40;99.90;;;;;;7378288;19;20339;-78
2023/03/01 02:03:14;;;;;;;6.77;4.17;;;-4.40;99.90;;;;;;7375572;19;20646;-79
2023/03/01 02:06:06;;;;;;;5.90;4.73;;;-4.40;99.90;;;;;;7276521;19;2004794;-80
2023/03/01 02:08:33;;;;;;;6.85;4.63;;;-4.50;99.90;;;;;;7377213;19;20831;-78
2023/03/01 02:10:59;;;;;;;6.33;4.47;;;-4.50;99.90;;;;;;7380926;19;20304;-81
2023/03/01 02:13:25;;;;;;;6.18;5.03;;;-4.60;99.90;;;;;;7375914;19;20340;-80
2023/03/01 02:15:51;;;;;;;6.55;4.68;;;-4.60;99.90;;;;;;7377633;19;20333;-82
2023/03/01 02:18:18;;;;;;;5.57;4.33;;;-4.70;99.90;;;;;;7377982;19;20320;-79
2023/03/01 02:21:08;;;;;;;5.07;4.53;;;-4.80;99.90;;;;;;7378555;19;20386;-81
2023/03/01 02:23:33;;;;;;;7.23;4.93;;;-4.90;99.90;;;;;;7379107;19;20317;-79
2023/03/01 02:26:19;;;;;;;6.67;4.80;;;-4.90;99.90;;;;;;7377720;19;20313;-82
2023/03/01 02:28:45;;;;;;;8.23;4.50;;;-4.90;99.90;;;;;;7276890;19;2004776;-84
2023/03/01 02:33:57;;;;;;;6.05;4.47;;;-4.80;99.90;;;;;;7374908;19;20452;-82
2023/03/01 02:36:28;;;;;;;6.13;4.53;;;-4.80;99.90;;;;;;7377514;19;20359;-78
2023/03/01 02:38:57;;;;;;;5.13;4.20;;;-4.80;99.90;;;;;;7373882;19;20349;-78
2023/03/01 02:41:23;;;;;;;5.47;3.85;;;-4.80;99.90;;;;;;7381866;19;20417;-80
2023/03/01 02:43:49;;;;;;;6.00;4.72;;;-4.80;99.90;;;;;;7381735;19;20349;-78
2023/03/01 02:46:17;;;;;;;5.73;4.77;;;-4.80;99.90;;;;;;7385298;19;20331;-79
2023/03/01 02:48:48;;;;;;;6.95;4.50;;;-4.90;99.90;;;;;;7383670;19;21252;-79
2023/03/01 02:51:43;;;;;;;7.10;4.50;;;-4.80;99.90;;;;;;7384865;19;20332;-79
2023/03/01 02:54:33;;;;;;;6.45;4.35;;;-4.90;99.90;;;;;;7281242;19;2004207;-81
2023/03/01 02:56:58;;;;;;;6.18;4.28;;;-4.90;99.90;;;;;;7384236;19;20321;-81
2023/03/01 02:59:27;;;;;;;4.40;3.45;;;-4.80;99.90;;;;;;7384387;19;20320;-82
2023/03/01 03:01:52;;;;;;;6.25;4.45;;;-4.80;99.90;;;;;;7381939;19;20344;-78
2023/03/01 03:04:18;;;;;;;4.20;3.80;;;-4.80;99.90;;;;;;7382715;19;20320;-79
2023/03/01 03:06:47;;;;;;;5.30;4.05;;;-4.80;99.90;;;;;;7381673;19;20336;-79
2023/03/01 03:09:13;;;;;;;5.53;4.20;;;-4.90;99.90;;;;;;7383323;19;20313;-81
2023/03/01 03:11:40;;;;;;;5.30;3.87;;;-4.90;99.90;;;;;;7382006;19;20369;-77
2023/03/01 03:14:12;;;;;;;5.57;4.33;;;-4.90;99.90;;;;;;7382522;19;20333;-78
2023/03/01 03:16:42;;;;;;;4.90;3.83;;;-4.90;99.90;;;;;;7274967;19;2004183;-81
2023/03/01 03:19:08;;;;;;;6.03;3.90;;;-4.90;99.90;;;;;;7384135;19;20868;-77
2023/03/01 03:21:34;;;;;;;5.73;4.23;;;-4.90;99.90;;;;;;7379932;19;20316;-78
2023/03/01 03:23:59;;;;;;;6.93;4.45;;;-4.90;99.90;;;;;;7381654;19;20335;-78
2023/03/01 03:26:25;;;;;;;6.83;4.23;;;-5.00;99.90;;;;;;7382830;19;20313;-80
2023/03/01 03:28:51;;;;;;;6.78;4.60;;;-5.00;99.90;;;;;;7383094;19;20327;-79
2023/03/01 03:31:16;;;;;;;5.38;4.18;;;-5.10;99.90;;;;;;7381356;19;20675;-82
2023/03/01 03:33:42;;;;;;;6.77;4.27;;;-5.10;99.90;;;;;;7384647;19;20439;-78
2023/03/01 03:36:12;;;;;;;5.78;4.50;;;-5.10;99.90;;;;;;7382522;19;20324;-79
2023/03/01 03:38:39;;;;;;;7.85;4.63;;;-5.10;99.90;;;;;;7382926;19;20337;-80
2023/03/01 03:41:07;;;;;;;5.35;4.25;;;-5.20;99.90;;;;;;7382145;19;20320;-79
2023/03/01 03:43:33;;;;;;;5.55;4.00;;;-5.30;99.90;;;;;;7381090;19;20862;-81
2023/03/01 03:45:59;;;;;;;6.95;4.40;;;-5.20;99.90;;;;;;7382878;19;20308;-80
2023/03/01 03:48:24;;;;;;;5.28;4.18;;;-5.20;99.90;;;;;;7379433;19;20335;-78
2023/03/01 03:50:54;;;;;;;5.43;4.23;;;-5.20;99.90;;;;;;7382828;19;20329;-78
2023/03/01 03:53:20;;;;;;;4.90;4.05;;;-5.20;99.90;;;;;;7380304;19;20327;-83
2023/03/01 03:55:48;;;;;;;5.88;3.95;;;-5.20;99.90;;;;;;7381611;19;20356;-82
2023/03/01 03:58:16;;;;;;;7.00;4.53;;;-5.20;99.90;;;;;;7380731;19;20316;-79
2023/03/01 04:00:43;;;;;;;8.15;4.82;;;-5.20;99.90;;;;;;7380897;19;20489;-84
2023/03/01 04:03:08;;;;;;;5.75;4.70;;;-5.20;99.90;;;;;;7378874;19;20911;-79
2023/03/01 04:05:35;;;;;;;5.87;4.00;;;-5.20;99.90;;;;;;7382148;19;20351;-81
2023/03/01 04:08:03;;;;;;;4.93;4.23;;;-5.30;99.90;;;;;;7381218;19;20315;-79
2023/03/01 04:10:30;;;;;;;7.00;5.43;;;-5.20;99.90;;;;;;7381423;19;20324;-79
2023/03/01 04:12:56;;;;;;;7.00;4.82;;;-5.30;99.90;;;;;;7381500;19;20337;-78
2023/03/01 04:15:23;;;;;;;5.13;4.07;;;-5.50;99.90;;;;;;7381364;19;20341;-78
2023/03/01 04:17:49;;;;;;;5.90;3.75;;;-5.50;99.90;;;;;;7379720;19;20365;-78
2023/03/01 04:20:17;;;;;;;5.65;4.68;;;-5.50;99.90;;;;;;7380509;19;20339;-82
2023/03/01 04:22:43;;;;;;;5.75;4.40;;;-5.40;99.90;;;;;;7380835;19;20352;-81
2023/03/01 04:25:13;;;;;;;5.40;4.70;;;-5.40;99.90;;;;;;7382232;19;20324;-79
2023/03/01 04:27:39;;;;;;;6.50;5.10;;;-5.40;99.90;;;;;;7380598;19;20337;-81
2023/03/01 04:30:05;;;;;;;6.10;4.72;;;-5.40;99.90;;;;;;7381499;19;20671;-81
2023/03/01 04:32:31;;;;;;;7.18;4.88;;;-5.40;99.90;;;;;;7376525;19;20312;-81
2023/03/01 04:34:57;;;;;;;6.57;5.47;;;-5.40;99.90;;;;;;7380848;19;20367;-78
2023/03/01 04:37:23;;;;;;;8.23;5.77;;;-5.40;99.90;;;;;;7380015;19;20329;-79
2023/03/01 04:39:49;;;;;;;9.55;6.78;;;-5.40;99.90;;;;;;7380479;19;20402;-80
2023/03/01 04:42:15;;;;;;;10.13;7.05;;;-5.40;99.90;;;;;;7380712;19;21175;-82
2023/03/01 04:44:41;;;;;;;10.23;7.43;;;-5.40;99.90;;;;;;7378638;19;20878;-82
2023/03/01 04:47:06;;;;;;;11.52;7.43;;;-5.40;99.90;;;;;;7379473;19;20384;-78
2023/03/01 04:49:32;;;;;;;10.93;7.60;;;-5.40;99.90;;;;;;7382588;19;20317;-78
2023/03/01 04:52:03;;;;;;;11.07;7.68;;;-5.40;99.90;;;;;;7377140;19;20936;-79
2023/03/01 04:54:30;;;;;;;12.40;7.85;;;-5.50;99.90;;;;;;7380265;19;20316;-78
2023/03/01 04:56:56;;;;;;;11.48;7.28;;;-5.50;99.90;;;;;;7382089;19;20562;-79
2023/03/01 04:59:22;;;;;;;10.10;7.35;;;-5.50;99.90;;;;;;7381311;19;20342;-79
2023/03/01 05:01:57;;;;;;;9.88;6.43;;;-5.50;99.90;;;;;;7377573;19;20683;-78
2023/03/01 05:04:23;;;;;;;9.93;7.13;;;-5.60;99.90;;;;;;7380747;19;20349;-80
2023/03/01 05:06:49;;;;;;;8.40;6.57;;;-5.60;99.90;;;;;;7381175;19;20408;-79
2023/03/01 05:09:16;;;;;;;9.25;6.70;;;-5.60;99.90;;;;;;7379275;19;20333;-79
2023/03/01 05:11:43;;;;;;;8.60;6.18;;;-5.60;99.90;;;;;;7379071;19;20309;-79
2023/03/01 05:14:10;;;;;;;9.95;6.00;;;-5.50;99.90;;;;;;7378683;19;20348;-78
2023/03/01 05:16:36;;;;;;;8.77;5.65;;;-5.60;99.90;;;;;;7379606;19;20320;-76
2023/03/01 05:19:11;;;;;;;7.00;5.68;;;-5.60;99.90;;;;;;7380463;19;20292;-82
2023/03/01 05:22:01;;;;;;;7.20;5.70;;;-5.60;99.90;;;;;;7379685;19;20329;-80
2023/03/01 05:24:23;;;;;;;7.35;5.85;;;-5.60;99.90;;;;;;7278856;19;2004536;-78
2023/03/01 05:26:51;;;;;;;6.90;5.43;;;-5.60;99.90;;;;;;7378297;19;21211;-76
2023/03/01 05:29:24;;;;;;;9.00;5.75;;;-5.60;99.90;;;;;;7378701;19;20329;-81
2023/03/01 05:32:00;;;;;;;7.80;5.55;;;-5.60;99.90;;;;;;7376852;19;20348;-77
2023/03/01 05:34:29;;;;;;;7.45;5.60;;;-5.70;99.90;;;;;;7378498;19;20331;-78
2023/03/01 05:36:54;;;;;;;7.67;5.50;;;-5.80;99.90;;;;;;7381303;19;20467;-77
2023/03/01 05:39:23;;;;;;;9.00;6.37;;;-5.80;99.90;;;;;;7378371;19;20386;-78
2023/03/01 05:41:52;;;;;;;7.88;5.80;;;-5.80;99.90;;;;;;7382530;19;20709;-82
2023/03/01 05:44:17;;;;;;;7.20;6.07;;;-5.80;99.90;;;;;;7380307;19;20738;-78
2023/03/01 05:46:43;;;;;;;7.63;5.17;;;-5.90;99.90;;;;;;7378135;19;20356;-78
2023/03/01 05:49:08;;;;;;;9.05;5.80;;;-5.90;99.90;;;;;;7380396;19;20343;-81
2023/03/01 05:51:34;;;;;;;7.43;5.70;;;-5.80;99.90;;;;;;7381453;19;20669;-76
2023/03/01 05:54:00;;;;;;;10.30;6.43;;;-5.80;99.90;;;;;;7378276;19;20413;-76
2023/03/01 05:56:25;;;;;;;9.88;6.10;;;-5.80;99.90;;;;;;7379741;19;20353;-79
2023/03/01 05:58:51;;;;;;;15.37;9.17;;;-5.90;99.90;;;;;;7378605;19;20348;-79
2023/03/01 06:01:16;;;;;;;10.18;6.95;;;-5.90;99.90;;;;;;7377788;19;20317;-78
2023/03/01 06:03:42;;;;;;;9.43;6.47;;;-5.90;99.90;;;;;;7376746;19;20389;-78
2023/03/01 06:06:08;;;;;;;9.47;5.73;;;-5.80;99.90;;;;;;7378655;19;20788;-78
2023/03/01 06:08:33;;;;;;;8.55;6.28;;;-5.80;99.90;;;;;;7376608;19;20327;-77
2023/03/01 06:10:59;;;;;;;9.70;6.40;;;-5.80;99.90;;;;;;7378656;19;20652;-80
2023/03/01 06:13:25;;;;;;;9.67;6.20;;;-5.80;99.90;;;;;;7376099;19;20418;-77
2023/03/01 06:15:50;;;;;;;8.93;6.50;;;-5.80;99.90;;;;;;7382388;19;20359;-79
2023/03/01 06:18:16;;;;;;;9.07;6.30;;;-5.80;99.90;;;;;;7384590;19;20320;-81
2023/03/01 06:20:41;;;;;;;10.18;7.78;;;-5.80;99.90;;;;;;7384354;19;20352;-78
2023/03/01 06:23:07;;;;;;;11.07;8.33;;;-5.80;99.90;;;;;;7383832;19;20437;-77
2023/03/01 06:25:34;;;;;;;12.97;9.10;;;-5.80;99.90;;;;;;7383503;19;20407;-77
2023/03/01 06:27:59;;;;;;;10.02;7.15;;;-5.80;99.90;;;;;;7382613;19;20843;-78
2023/03/01 06:30:26;;;;;;;7.73;6.07;;;-5.80;99.90;;;;;;7383307;19;20317;-79
2023/03/01 06:32:51;;;;;;;9.97;6.23;;;-5.70;99.90;;;;;;7382738;19;20348;-79
2023/03/01 06:35:17;;;;;;;9.17;6.60;;;-5.60;99.90;;;;;;7381768;19;20855;-78
2023/03/01 06:37:43;;;;;;;10.93;7.53;;;-5.60;99.90;;;;;;7383847;19;20416;-77
2023/03/01 06:40:11;;;;;;;10.15;6.75;;;-5.50;99.90;;;;;;7383526;19;20341;-78
2023/03/01 06:42:40;;;;;;;11.15;6.85;;;-5.50;99.90;;;;;;7384133;19;21124;-77
2023/03/01 06:45:07;;;;;;;13.75;8.70;;;-5.40;99.90;;;;;;7379207;19;20312;-77
2023/03/01 06:47:33;;;;;;;13.80;9.07;;;-5.40;99.90;;;;;;7379670;19;20321;-80
2023/03/01 06:49:59;;;;;;;11.15;7.22;;;-5.40;99.90;;;;;;7380040;19;20328;-77
2023/03/01 06:52:25;;;;;;;9.95;7.25;;;-5.40;99.90;;;;;;7379317;19;20316;-79
2023/03/01 06:54:50;;;;;;;12.90;9.50;;;-5.30;99.90;;;;;;7378573;19;21223;-81
2023/03/01 06:57:16;;;;;;;13.57;8.67;;;-5.30;99.90;;;;;;7379510;19;20994;-76
2023/03/01 06:59:42;;;;;;;15.07;9.70;;;-5.30;99.90;;;;;;7383414;19;20380;-79
2023/03/01 07:02:13;;;;;;;12.00;8.47;;;-5.20;99.90;;;;;;7379930;19;20337;-77
2023/03/01 07:04:39;;;;;;;15.50;9.77;;;-5.20;99.90;;;;;;7384060;19;20349;-77
2023/03/01 07:07:04;;;;;;;12.63;8.57;;;-5.20;99.90;;;;;;7374897;19;20392;-81
2023/03/01 07:09:30;;;;;;;11.13;8.80;;;-5.20;99.90;;;;;;7382489;19;20300;-80
2023/03/01 07:11:56;;;;;;;14.15;9.38;;;-5.20;99.90;;;;;;7381336;19;20380;-77
2023/03/01 07:14:24;;;;;;;13.55;8.50;;;-5.10;99.90;;;;;;7382191;19;20368;-78
2023/03/01 07:16:49;;;;;;;12.70;9.40;;;-5.10;99.90;;;;;;7382625;19;20356;-78
2023/03/01 07:19:15;;;;;;;13.03;9.27;;;-5.10;99.90;;;;;;7382653;19;20410;-80
2023/03/01 07:21:41;;;;;;;11.45;8.55;;;-5.00;99.90;;;;;;7381579;19;20345;-76
2023/03/01 07:24:07;;;;;;;10.98;7.88;;;-4.90;99.90;;;;;;7383391;19;20305;-77
2023/03/01 07:26:32;;;;;;;8.90;7.05;;;-4.90;99.90;;;;;;7381316;19;20317;-80
2023/03/01 07:29:02;;;;;;;10.23;7.30;;;-4.90;99.90;;;;;;7383309;19;20950;-77
2023/03/01 07:31:27;;;;;;;15.43;9.50;;;-4.90;99.90;;;;;;7381226;19;20328;-78
2023/03/01 07:33:54;;;;;;;9.07;7.50;;;-4.90;99.90;;;;;;7380324;19;20412;-78
2023/03/01 07:36:19;;;;;;;12.13;8.17;;;-4.90;99.90;;;;;;7381728;19;20316;-78
2023/03/01 07:38:46;;;;;;;12.10;8.20;;;-4.80;99.90;;;;;;7382665;19;20345;-76
2023/03/01 07:41:12;;;;;;;11.23;7.18;;;-4.80;99.90;;;;;;7380292;19;20316;-77
2023/03/01 07:43:37;;;;;;;11.17;7.33;;;-4.80;99.90;;;;;;7381591;19;20328;-79
2023/03/01 07:46:03;;;;;;;12.00;8.90;;;-4.70;99.90;;;;;;7381280;19;20952;-78
2023/03/01 07:48:29;;;;;;;10.73;7.63;;;-4.70;99.90;;;;;;7380889;19;20316;-77
2023/03/01 07:51:00;;;;;;;12.45;8.27;;;-4.60;99.90;;;;;;7382391;19;20702;-84
2023/03/01 07:53:26;;;;;;;9.13;7.10;;;-4.60;99.90;;;;;;7379429;19;20439;-77
2023/03/01 07:56:08;;;;;;;11.20;8.23;;;-4.60;99.90;;;;;;7380883;19;20954;-84
2023/03/01 07:58:35;;;;;;;9.57;7.63;;;-4.50;99.90;;;;;;7382563;19;20428;-78
2023/03/01 08:01:04;;;;;;;10.82;8.05;;;-4.50;99.90;;;;;;7382118;19;20400;-78
2023/03/01 08:03:29;;;;;;;8.85;7.20;;;-4.50;99.90;;;;;;7380173;19;20337;-80
2023/03/01 08:05:55;;;;;;;11.07;8.07;;;-4.40;99.90;;;;;;7382274;19;20351;-78
2023/03/01 08:25:50;;;;;;;16.98;11.75;;;-3.50;99.90;;;;;;7342077;19;20783;-80
2023/03/01 08:28:16;;;;;;;10.70;8.68;;;-3.40;99.90;;;;;;7381050;19;20412;-80
2023/03/01 08:30:41;;;;;;;17.73;12.50;;;-3.30;99.90;;;;;;7378545;19;20356;-82
2023/03/01 08:33:07;;;;;;;20.35;12.30;;;-3.20;99.90;;;;;;7381837;19;20350;-82
2023/03/01 08:35:32;;;;;;;19.07;12.07;;;-3.00;99.90;;;;;;7380163;19;20325;-80
2023/03/01 08:37:58;;;;;;;16.52;10.32;;;-2.90;99.90;;;;;;7379373;19;20674;-79
2023/03/01 08:40:24;;;;;;;14.50;9.73;;;-2.80;99.90;;;;;;7378888;19;21002;-80
2023/03/01 08:42:49;;;;;;;14.18;10.25;;;-2.70;99.90;;;;;;7377875;19;20351;-81
2023/03/01 08:45:18;;;;;;;19.77;11.50;;;-2.60;99.90;;;;;;7380400;19;20898;-80
2023/03/01 08:47:44;;;;;;;20.83;11.88;;;-2.40;99.90;;;;;;7375951;19;20364;-82
2023/03/01 08:50:10;;;;;;;12.90;9.93;;;-2.20;99.90;;;;;;7373281;19;20329;-78
2023/03/01 08:52:35;;;;;;;10.63;7.85;;;-2.00;99.90;;;;;;7377745;19;20365;-78
2023/03/01 08:55:01;;;;;;;13.53;11.07;;;-1.90;99.90;;;;;;7376503;19;20312;-79
2023/03/01 08:57:27;;;;;;;14.50;10.70;;;-1.80;99.90;;;;;;7378817;19;21152;-79
2023/03/01 08:59:52;;;;;;;14.18;10.85;;;-1.70;99.90;;;;;;7379575;19;20690;-79
2023/03/01 09:02:18;;;;;;;13.77;10.10;;;-1.60;99.90;;;;;;7377779;19;20380;-77
2023/03/01 09:04:44;;;;;;;17.80;12.50;;;-1.50;99.90;;;;;;7378879;19;20344;-77
2023/03/01 09:07:10;;;;;;;15.18;11.48;;;-1.20;99.90;;;;;;7377121;19;20333;-78
2023/03/01 09:09:35;;;;;;;17.50;11.73;;;-1.00;99.90;;;;;;7379155;19;20852;-77
2023/03/01 09:12:01;;;;;;;12.27;9.47;;;-1.00;99.90;;;;;;7378237;19;20353;-77
2023/03/01 09:14:27;;;;;;;13.48;9.65;;;-0.80;99.90;;;;;;7379648;19;20431;-78
2023/03/01 09:16:53;;;;;;;16.52;12.07;;;-0.70;99.90;;;;;;7381229;19;20872;-77
2023/03/01 09:19:18;;;;;;;17.67;13.17;;;-0.60;99.90;;;;;;7380369;19;20345;-81
2023/03/01 09:21:53;;;;;;;13.68;11.38;;;-0.40;99.90;;;;;;7379963;19;20947;-77
2023/03/01 09:24:22;;;;;;;17.20;12.03;;;-0.20;99.90;;;;;;7382071;19;20426;-79
2023/03/01 09:26:48;;;;;;;14.65;11.00;;;0.00;99.90;;;;;;7380243;19;20352;-80
2023/03/01 09:29:14;;;;;;;15.07;11.20;;;0.10;99.90;;;;;;7384141;19;20350;-84
2023/03/01 09:31:40;;;;;;;15.02;11.48;;;0.20;99.90;;;;;;7383858;19;20332;-82
2023/03/01 09:34:06;;;;;;;16.45;11.75;;;0.30;99.90;;;;;;7385152;19;20336;-78
2023/03/01 09:36:32;;;;;;;19.02;13.27;;;0.50;99.90;;;;;;7381423;19;20422;-80
2023/03/01 09:38:59;;;;;;;15.07;11.38;;;0.60;99.90;;;;;;7380592;19;20347;-82
2023/03/01 09:41:44;;;;;;;17.27;12.10;;;0.80;99.90;;;;;;7380941;19;20353;-84
2023/03/01 09:44:25;;;;;;;14.57;11.02;;;0.80;99.90;;;;;;7277978;19;2004366;-81
2023/03/01 09:46:51;;;;;;;13.73;10.73;;;1.00;99.90;;;;;;7376186;19;20356;-77
2023/03/01 09:49:40;;;;;;;13.98;9.55;;;1.10;99.90;;;;;;7373236;19;20982;-84
2023/03/01 09:52:42;;;;;;;15.95;12.55;;;1.10;99.90;;;;;;7375962;19;21236;-80
2023/03/01 09:55:10;;;;;;;15.27;10.40;;;1.20;99.90;;;;;;7171674;19;2004879;-77
2023/03/01 09:57:45;;;;;;;15.77;11.23;;;1.40;99.90;;;;;;7376934;19;20877;-81
2023/03/01 10:00:25;;;;;;;16.88;12.10;;;1.50;99.90;;;;;;7274610;19;2004572;-82
2023/03/01 10:03:11;;;;;;;17.00;11.37;;;1.60;99.90;;;;;;7377149;19;20387;-79
2023/03/01 10:05:56;;;;;;;17.33;11.98;;;1.80;99.90;;;;;;7373029;19;20373;-77
2023/03/01 10:08:53;;;;;;;22.30;12.98;;;1.90;99.90;;;;;;7270198;19;2004372;-80
2023/03/01 10:11:22;;;;;;;16.10;11.85;;;2.00;99.90;;;;;;7280592;19;2004352;-84
2023/03/01 10:13:57;;;;;;;16.75;12.00;;;2.10;99.90;;;;;;7376599;19;20364;-83
2023/03/01 10:16:52;;;;;;;15.60;10.50;;;2.30;99.90;;;;;;7372195;19;20923;-83
2023/03/01 10:19:37;;;;;;;13.20;9.82;;;2.30;99.90;;;;;;7276444;19;2004379;-88
2023/03/01 10:22:17;;;;;;;15.45;10.55;;;2.40;99.90;;;;;;7382454;19;20732;-82
2023/03/01 10:24:43;;;;;;;11.43;9.50;;;2.60;99.90;;;;;;7276160;19;2004244;-80
2023/03/01 10:27:25;;;;;;;15.35;10.00;;;2.70;99.90;;;;;;7375409;19;20328;-82
2023/03/01 10:30:15;;;;;;;15.07;9.95;;;2.80;99.90;;;;;;7281011;19;2007139;-90
2023/03/01 10:32:43;;;;;;;13.40;9.63;;;2.90;99.90;;;;;;7283849;19;2003655;-89
2023/03/01 10:35:26;;;;;;;12.32;9.00;;;3.00;99.90;;;;;;7389761;19;20358;-93
2023/03/01 10:38:09;;;;;;;16.20;9.87;;;3.00;99.90;;;;;;7283472;19;2004223;-85
2023/03/01 10:40:35;;;;;;;14.15;9.13;;;3.10;99.90;;;;;;7387821;19;20316;-87
2023/03/01 10:43:02;;;;;;;16.52;9.93;;;3.30;99.90;;;;;;7387781;19;20313;-94
2023/03/01 10:45:39;;;;;;;16.50;9.55;;;3.40;99.90;;;;;;7384062;19;20320;-83
2023/03/01 10:48:24;;;;;;;11.55;9.10;;;3.50;99.90;;;;;;7341909;19;20348;-90
2023/03/01 10:51:17;;;;;;;11.53;8.13;;;3.70;99.90;;;;;;7282135;19;2004609;-93
2023/03/01 10:53:51;;;;;;;12.23;8.47;;;3.80;99.90;;;;;;7284845;19;2004398;-84
2023/03/01 10:56:17;;;;;;;12.03;8.20;;;4.00;99.90;;;;;;7385671;19;20328;-90
2023/03/01 10:58:58;;;;;;;9.65;6.90;;;4.20;99.90;;;;;;7388277;19;20317;-91
2023/03/01 11:01:24;;;;;;;14.18;6.72;;;4.20;99.90;;;;;;7385545;19;20340;-90
2023/03/01 11:04:06;;;;;;;9.25;6.25;;;4.50;99.90;;;;;;7390338;19;20337;-95
2023/03/01 11:06:35;;;;;;;10.93;6.57;;;4.70;99.90;;;;;;7392893;19;20309;-92
2023/03/01 11:09:19;;;;;;;11.57;6.40;;;5.00;99.90;;;;;;7392297;19;20328;-93
2023/03/01 11:11:45;;;;;;;8.70;5.75;;;5.20;99.90;;;;;;7288886;19;2004470;-86
2023/03/01 11:14:20;;;;;;;9.07;6.75;;;5.40;99.90;;;;;;7391591;19;20331;-89
2023/03/01 11:16:47;;;;;;;10.98;6.57;;;5.70;99.90;;;;;;7393486;19;20329;-89
2023/03/01 11:19:15;;;;;;;9.80;6.75;;;5.70;99.90;;;;;;7389927;19;20341;-90
2023/03/01 11:21:53;;;;;;;10.63;7.70;;;6.00;99.90;;;;;;7390968;19;20369;-88
2023/03/01 11:24:18;;;;;;;10.80;7.22;;;6.30;99.90;;;;;;7396717;19;20316;-91
2023/03/01 11:26:54;;;;;;;8.90;6.93;;;6.50;99.90;;;;;;7397403;19;20352;-91
2023/03/01 11:29:29;;;;;;;8.73;6.43;;;6.80;99.90;;;;;;7395406;19;20317;-94
2023/03/01 11:31:57;;;;;;;11.93;7.18;;;7.00;99.90;;;;;;7397750;19;20336;-92
2023/03/01 11:34:51;;;;;;;9.50;7.05;;;7.30;99.90;;;;;;7396837;19;20329;-88
2023/03/01 11:37:24;;;;;;;8.20;5.65;;;7.50;99.90;;;;;;7294534;19;2004267;-94
2023/03/01 11:40:03;;;;;;;11.63;6.53;;;7.80;99.90;;;;;;7399165;19;20320;-89
2023/03/01 11:42:43;;;;;;;9.07;6.53;;;8.30;99.90;;;;;;7396798;19;20332;-91
2023/03/01 11:45:10;;;;;;;8.80;6.68;;;8.40;99.90;;;;;;7399761;19;20335;-89
2023/03/01 11:47:58;;;;;;;11.93;7.00;;;8.50;99.90;;;;;;7401453;19;20337;-96
2023/03/01 11:50:30;;;;;;;10.30;7.20;;;8.50;99.90;;;;;;7295968;19;2013690;-90
2023/03/01 11:53:06;;;;;;;8.88;6.22;;;8.60;99.90;;;;;;7400203;19;20472;-93
2023/03/01 11:55:57;;;;;;;9.75;6.85;;;8.90;99.90;;;;;;7398944;19;20297;-90
2023/03/01 11:58:36;;;;;;;6.90;5.30;;;9.10;99.90;;;;;;7296300;19;2004353;-94
2023/03/01 12:01:17;;;;;;;9.07;6.00;;;9.20;99.90;;;;;;7401590;19;20320;-88
2023/03/01 12:03:42;;;;;;;8.00;5.13;;;9.30;99.90;;;;;;7297455;19;2004211;-90
2023/03/01 12:06:35;;;;;;;6.23;4.57;;;9.30;99.90;;;;;;7400533;19;20320;-95
2023/03/01 13:35:45;;;;;;;3.72;2.85;;;11.00;75.50;;;;;;7331929;19;20353;-82
2023/03/01 13:38:40;;;;;;;4.00;3.10;;;11.10;79.10;;;;;;7403063;19;20312;-84
2023/03/01 13:41:06;;;;;;;2.80;2.50;;;11.10;77.40;;;;;;7405505;19;20333;-83
2023/03/01 13:43:39;;;;;;;3.03;2.63;;;10.80;76.30;;;;;;7401309;19;20305;-85
2023/03/01 13:46:11;;;;;;;2.65;2.22;;;10.40;74.70;;;;;;7396309;19;20304;-88
2023/03/01 13:48:37;;;;;;;3.17;2.47;;;10.30;75.60;;;;;;7392303;19;20321;-80
2023/03/01 13:51:04;;;;;;;4.10;2.28;;;10.10;75.90;;;;;;7397297;19;20327;-85
2023/03/01 13:53:32;;;;;;;2.80;2.47;;;10.50;81.10;;;;;;7395596;19;20323;-82
2023/03/01 13:56:19;;;;;;;3.63;2.60;;;11.10;81.20;;;;;;7394164;19;20366;-81
2023/03/01 13:58:56;;;;;;;3.67;2.10;;;11.30;76.20;;;;;;7292590;19;2004383;-82
2023/03/01 14:01:24;;;;;;;2.92;2.35;;;11.20;73.80;;;;;;7394504;19;20360;-82
2023/03/01 14:03:51;;;;;;;2.30;2.10;;;11.30;77.60;;;;;;7389985;19;20341;-82
2023/03/01 14:06:22;;;;;;;3.13;2.50;;;11.40;77.90;;;;;;7393603;19;20467;-85
2023/03/01 14:08:50;;;;;;;2.90;2.25;;;10.90;78.20;;;;;;7399281;19;20722;-85
2023/03/01 14:11:37;;;;;;;3.33;2.70;;;10.80;75.50;;;;;;7397588;19;20891;-89
2023/03/01 14:14:23;;;;;;;2.93;2.60;;;10.70;76.60;;;;;;7398731;19;20324;-90
2023/03/01 14:17:14;;;;;;;3.70;2.50;;;10.60;75.20;;;;;;7287433;19;2020016;-85
2023/03/01 14:19:45;;;;;;;5.13;2.50;;;10.70;76.80;;;;;;7396976;19;20361;-93
2023/03/01 14:22:27;;;;;;;3.73;2.67;;;10.50;76.00;;;;;;7292877;19;2020536;-80
2023/03/01 14:24:55;;;;;;;2.63;2.42;;;10.40;75.20;;;;;;7397497;19;20344;-88
2023/03/01 14:27:21;;;;;;;4.20;2.50;;;10.60;78.30;;;;;;7392991;19;20342;-86
2023/03/01 14:30:25;;;;;;;3.37;2.80;;;10.80;77.20;;;;;;7397585;19;20360;-87
2023/03/01 14:32:56;;;;;;;4.75;2.70;;;10.70;72.80;;;;;;7193588;19;2004885;-91
2023/03/01 14:35:31;;;;;;;2.88;2.53;;;10.70;74.30;;;;;;7398099;19;20352;-83
2023/03/01 14:37:57;;;;;;;4.93;2.65;;;10.30;70.60;;;;;;7402609;19;20343;-83
2023/03/01 14:40:27;;;;;;;4.25;2.85;;;10.30;73.50;;;;;;7404543;19;20309;-84
2023/03/01 14:42:53;;;;;;;2.67;2.40;;;10.40;76.80;;;;;;7403016;19;20945;-84